Detall de PIREP

Printer-friendly versionPDF version

[2012/06/29 20:55:00]
Flight IATA:CT3119
Pilot Number:026
Company ICAO:CAT
Aircraft Type:DC85/A
PAX:132
Departing Airport: LFMP
Destination Airport: LEPA
Alternate Airport:LEMH
Online: VATSIM
Route:BGR3N/33 BGR A27 KENAS
Flight Level:F190
No Slew and time accel
No pause
Crash detect
Detect pilot in Cockpit between each 30 and 45 minutes
20:55 Zero fuel Weight: 179287 Lbs, Fuel Weight: 21000 Lbs
20:55 VATSIM:LFMP 292030Z AUTO 06007KT 9999 OVC036 24/20 Q1012
20:55 VATSIM:LEPA 292030Z 00000KT CAVOK 26/16 Q1011 NOSIG
20:55 VOICE CATALONIAN / INTERHUB ROUTE
21:17 Parking Brakes off
21:26 Take-off
21:26 Take off Weight: 199334 Lbs
21:26 Wind: 000º @ 000 Knots Heading: 328º
21:26 POS N42º 44´ 57´´ E002º 51´ 56´´
21:26 Gear Up: 164 Knots
21:26 Flaps:2 at 164 Knots
21:26 Flaps:1 at 160 Knots
21:27 Flaps:0 at 223 Knots
21:33 TOC
21:33 Fuel Weight: 17336 Lb
21:41 Wind:000º@000 Knots Heading: 182º Ground Speed: 417 Knots Altitude 18996 ft
21:53 TOD
21:53 Fuel Weight: 12766 Lb
21:56 Wind:000º@000 Knots Heading: 164º Ground Speed: 405 Knots Altitude 15032 ft
22:10 Flaps:1 at 213 Knots
22:10 Gear Down: 196 Knots
22:11 Wind:000º@000 Knots Heading: 059º Ground Speed: 167 Knots Altitude 1335 ft
22:11 Flaps:2 at 156 Knots
22:12 Flaps:3 at 160 Knots
22:12 Flaps:4 at 142 Knots
22:12 TouchDown:Rate -316 ft/min Speed: 127 Knots
22:14 VATSIM:LEPA 292200Z 00000KT CAVOK 24/15 Q1012 NOSIG
22:14 Land
22:14 Wind:000º@000 Knots
22:14 Heading: 059º
22:14 Flight Duration: 00:48
22:14 Landing Weight: 190365 Lbs
22:14 POS N39º 33´ 11´´ E002º 43´ 25´´
22:20 Parking brakes on
22:20 Block to Block Duration: 01:03
22:20 Final Fuel: 10485 Lbls
22:20 Spent Fuel: 10515 Lbls
22:20 Flight Length: 261 NM
22:20 TOD Land Length: 89 NM

Exportar CSV

Powered by Drupal - Modified by Danger4k